createdAt,value
2019-02-25T00:01:06.820Z,19.50
2019-02-25T00:03:38.955Z,19.55
2019-02-25T00:06:11.090Z,19.52
2019-02-25T00:08:43.227Z,19.55
2019-02-25T00:11:15.352Z,19.51
2019-02-25T00:13:47.494Z,19.46
2019-02-25T00:16:19.618Z,19.44
2019-02-25T00:18:51.766Z,19.44
2019-02-25T00:21:23.885Z,19.43
2019-02-25T00:23:56.010Z,19.42
2019-02-25T00:26:28.139Z,19.41
2019-02-25T00:29:00.273Z,19.36
2019-02-25T00:31:32.401Z,19.37
2019-02-25T00:34:05.604Z,19.37
2019-02-25T00:36:37.731Z,19.39
2019-02-25T00:39:09.883Z,19.38
2019-02-25T00:41:41.989Z,19.31
2019-02-25T00:44:14.117Z,19.29
2019-02-25T00:46:46.249Z,19.30
2019-02-25T00:49:18.375Z,19.30
2019-02-25T00:51:50.499Z,19.30
2019-02-25T00:54:22.629Z,19.25
2019-02-25T00:56:54.766Z,19.28
2019-02-25T00:59:26.910Z,19.31
2019-02-25T01:01:59.043Z,19.24
2019-02-25T01:04:31.168Z,19.24
2019-02-25T01:07:03.300Z,19.21
2019-02-25T01:09:35.426Z,19.20
2019-02-25T01:12:07.551Z,19.21
2019-02-25T01:14:39.685Z,19.20
2019-02-25T01:17:11.815Z,19.21
2019-02-25T01:19:43.946Z,19.18
2019-02-25T01:22:16.075Z,19.17
2019-02-25T01:24:48.210Z,19.17
2019-02-25T01:27:20.334Z,19.15
2019-02-25T01:29:52.460Z,19.17
2019-02-25T01:32:25.659Z,19.16
2019-02-25T01:34:57.805Z,19.14
2019-02-25T01:37:29.930Z,19.11
2019-02-25T01:40:02.073Z,19.08
2019-02-25T01:42:34.376Z,19.11
2019-02-25T01:45:06.506Z,19.10
2019-02-25T01:47:38.636Z,19.09
2019-02-25T01:50:10.769Z,19.05
2019-02-25T01:52:42.907Z,19.06
2019-02-25T01:55:15.052Z,19.02
2019-02-25T01:57:47.453Z,19.01
2019-02-25T02:00:19.587Z,18.98
2019-02-25T02:02:51.715Z,18.99
2019-02-25T02:05:24.611Z,19.01
2019-02-25T02:07:56.951Z,18.99
2019-02-25T02:10:29.094Z,18.96
2019-02-25T02:13:01.215Z,18.94
2019-02-25T02:15:33.346Z,18.94
2019-02-25T02:18:05.474Z,18.93
2019-02-25T02:20:37.602Z,18.94
2019-02-25T02:23:09.729Z,18.93
2019-02-25T02:25:41.865Z,18.92
2019-02-25T02:28:13.989Z,18.91
2019-02-25T02:30:46.145Z,18.92
2019-02-25T02:33:18.282Z,18.92
2019-02-25T02:35:50.404Z,18.88
2019-02-25T02:38:22.530Z,18.86
2019-02-25T02:40:54.662Z,18.87
2019-02-25T02:43:26.790Z,18.85
2019-02-25T02:45:59.887Z,18.82
2019-02-25T02:48:32.009Z,18.79
2019-02-25T02:51:04.139Z,18.83
2019-02-25T02:53:36.267Z,18.82
2019-02-25T02:56:08.401Z,18.81
2019-02-25T02:58:40.525Z,18.78
2019-02-25T03:01:12.656Z,18.77
2019-02-25T03:03:44.790Z,18.74
2019-02-25T03:06:16.924Z,18.74
2019-02-25T03:08:49.059Z,18.74
2019-02-25T03:11:22.166Z,18.71
2019-02-25T03:13:54.302Z,18.69
2019-02-25T03:16:26.426Z,18.71
2019-02-25T03:18:58.555Z,18.81
2019-02-25T03:21:30.692Z,18.89
2019-02-25T03:24:02.817Z,18.99
2019-02-25T03:26:34.947Z,18.97
2019-02-25T03:29:07.088Z,18.99
2019-02-25T03:31:39.223Z,19.00
2019-02-25T03:34:11.348Z,18.95
2019-02-25T03:36:43.490Z,18.91
2019-02-25T03:39:15.613Z,18.94
2019-02-25T03:41:47.739Z,18.86
2019-02-25T03:44:19.880Z,18.91
2019-02-25T03:46:52.013Z,18.99
2019-02-25T03:49:24.138Z,18.92
2019-02-25T03:51:56.274Z,19.03
2019-02-25T03:54:28.404Z,19.05
2019-02-25T03:57:00.540Z,19.04
2019-02-25T03:59:32.675Z,18.99
2019-02-25T04:02:04.810Z,19.00
2019-02-25T04:04:36.937Z,18.95
2019-02-25T04:07:09.068Z,18.90
2019-02-25T04:09:41.201Z,18.90
2019-02-25T04:12:13.333Z,18.90
2019-02-25T04:14:45.471Z,18.95
2019-02-25T04:17:17.601Z,19.03
2019-02-25T04:19:49.731Z,19.06
2019-02-25T04:22:21.868Z,19.14
2019-02-25T04:24:53.995Z,19.15
2019-02-25T04:27:26.133Z,19.13
2019-02-25T04:29:58.272Z,19.10
2019-02-25T04:32:30.412Z,19.09
2019-02-25T04:35:02.568Z,19.05
2019-02-25T04:37:34.678Z,19.01
2019-02-25T04:40:06.810Z,19.01
2019-02-25T04:42:38.949Z,19.02
2019-02-25T04:45:11.065Z,19.10
2019-02-25T04:47:43.220Z,19.13
2019-02-25T04:50:15.356Z,19.20
2019-02-25T04:52:47.486Z,19.28
2019-02-25T04:55:19.613Z,19.31
2019-02-25T04:57:51.737Z,19.30
2019-02-25T05:00:23.864Z,19.24
2019-02-25T05:02:55.992Z,19.21
2019-02-25T05:05:28.120Z,19.16
2019-02-25T05:08:00.247Z,19.10
2019-02-25T05:10:32.379Z,19.14
2019-02-25T05:13:04.515Z,19.18
2019-02-25T05:15:36.648Z,19.23
2019-02-25T05:18:08.778Z,19.31
2019-02-25T05:20:40.904Z,19.41
2019-02-25T05:23:13.048Z,19.46
2019-02-25T05:25:45.174Z,19.47
2019-02-25T05:28:17.306Z,19.48
2019-02-25T05:30:49.438Z,19.39
2019-02-25T05:33:21.606Z,19.35
2019-02-25T05:35:53.981Z,19.43
2019-02-25T05:38:26.108Z,19.56
2019-02-25T05:40:58.239Z,19.84
2019-02-25T05:43:30.370Z,20.25
2019-02-25T05:46:02.501Z,20.66
2019-02-25T05:48:34.626Z,20.96
2019-02-25T05:51:06.753Z,21.18
2019-02-25T05:53:38.878Z,21.23
2019-02-25T05:56:11.007Z,21.59
2019-02-25T05:58:43.133Z,21.25
2019-02-25T06:01:15.277Z,20.95
2019-02-25T06:03:47.403Z,20.70
2019-02-25T06:06:19.550Z,20.53
2019-02-25T06:08:51.674Z,20.40
2019-02-25T06:11:23.804Z,20.35
2019-02-25T06:13:55.945Z,20.26
2019-02-25T06:16:28.083Z,20.14
2019-02-25T06:19:00.220Z,20.25
2019-02-25T06:21:32.349Z,20.74
2019-02-25T06:24:04.479Z,20.93
2019-02-25T06:26:38.609Z,21.21
2019-02-25T06:29:10.446Z,21.41
2019-02-25T06:31:42.581Z,21.54
2019-02-25T06:34:14.704Z,21.53
2019-02-25T06:36:46.845Z,21.53
2019-02-25T06:39:18.986Z,21.50
2019-02-25T06:41:51.130Z,21.41
2019-02-25T06:44:23.265Z,21.30
2019-02-25T06:46:55.448Z,20.98
2019-02-25T06:49:27.544Z,20.81
2019-02-25T06:51:59.681Z,20.78
2019-02-25T06:54:31.856Z,20.99
2019-02-25T06:57:03.957Z,20.96
2019-02-25T06:59:36.091Z,20.88
2019-02-25T07:02:08.223Z,21.06
2019-02-25T07:04:40.357Z,21.11
2019-02-25T07:07:12.489Z,21.14
2019-02-25T07:09:44.620Z,21.13
2019-02-25T07:12:16.752Z,21.31
2019-02-25T07:14:48.889Z,21.36
2019-02-25T07:17:22.658Z,21.34
2019-02-25T07:19:54.930Z,21.41
2019-02-25T07:22:27.060Z,21.41
2019-02-25T07:24:59.189Z,21.53
2019-02-25T07:27:31.324Z,21.61
2019-02-25T07:30:03.448Z,21.53
2019-02-25T07:32:36.541Z,21.56
2019-02-25T07:35:08.670Z,21.48
2019-02-25T07:37:40.811Z,21.43
2019-02-25T07:40:12.948Z,21.32
2019-02-25T07:42:45.069Z,21.22
2019-02-25T07:45:17.201Z,21.20
2019-02-25T07:47:49.350Z,21.17
2019-02-25T07:50:21.472Z,21.18
2019-02-25T07:52:53.600Z,21.11
2019-02-25T07:55:25.729Z,21.09
2019-02-25T07:57:57.867Z,21.13
2019-02-25T08:00:29.997Z,21.20
2019-02-25T08:03:02.134Z,21.22
2019-02-25T08:05:34.261Z,21.11
2019-02-25T08:08:06.393Z,21.24
2019-02-25T08:10:38.523Z,21.23
2019-02-25T08:13:10.652Z,21.22
2019-02-25T08:15:42.781Z,21.24
2019-02-25T08:18:14.926Z,21.20
2019-02-25T08:20:47.053Z,21.11
2019-02-25T08:23:19.183Z,21.14
2019-02-25T08:25:52.078Z,21.04
2019-02-25T08:28:24.224Z,20.99
2019-02-25T08:30:56.362Z,21.00
2019-02-25T08:33:28.491Z,20.96
2019-02-25T08:36:00.620Z,20.89
2019-02-25T08:38:32.760Z,21.03
2019-02-25T08:41:04.896Z,21.05
2019-02-25T08:43:37.037Z,21.03
2019-02-25T08:46:09.170Z,21.01
2019-02-25T08:48:41.307Z,20.99
2019-02-25T08:51:13.436Z,20.98
2019-02-25T08:53:45.566Z,21.00
2019-02-25T08:56:18.674Z,20.94
2019-02-25T08:58:50.806Z,21.00
2019-02-25T09:01:22.936Z,20.99
2019-02-25T09:03:55.080Z,21.00
2019-02-25T09:06:27.216Z,20.97
2019-02-25T09:08:59.365Z,21.06
2019-02-25T09:11:31.499Z,21.03
2019-02-25T09:14:03.629Z,21.09
2019-02-25T09:16:35.765Z,21.13
2019-02-25T09:19:07.909Z,21.09
2019-02-25T09:21:40.053Z,21.11
2019-02-25T09:24:12.184Z,21.11
2019-02-25T09:26:44.309Z,21.15
2019-02-25T09:29:16.451Z,21.14
2019-02-25T09:31:48.574Z,21.14
2019-02-25T09:34:20.709Z,21.16
2019-02-25T09:36:52.899Z,21.16
2019-02-25T09:39:24.995Z,21.18
2019-02-25T09:41:57.127Z,21.20
2019-02-25T09:44:29.255Z,21.17
2019-02-25T09:47:01.394Z,21.24
2019-02-25T09:49:33.522Z,21.24
2019-02-25T09:52:05.663Z,21.21
2019-02-25T09:54:37.786Z,21.27
2019-02-25T09:57:09.934Z,21.30
2019-02-25T09:59:42.062Z,21.25
2019-02-25T10:02:14.200Z,21.26
2019-02-25T10:04:46.334Z,21.30
2019-02-25T10:07:18.463Z,21.30
2019-02-25T10:09:50.597Z,21.31
2019-02-25T10:12:22.733Z,21.32
2019-02-25T10:14:55.833Z,21.33
2019-02-25T10:17:27.963Z,21.34
2019-02-25T10:20:00.144Z,21.42
2019-02-25T10:22:32.861Z,21.43
2019-02-25T10:25:04.998Z,21.44
2019-02-25T10:27:37.137Z,21.49
2019-02-25T10:30:09.271Z,21.53
2019-02-25T10:32:41.415Z,21.51
2019-02-25T10:35:13.534Z,21.51
2019-02-25T10:37:45.666Z,21.53
2019-02-25T10:40:22.158Z,21.49
2019-02-25T10:42:51.618Z,21.53
2019-02-25T10:45:23.747Z,21.49
2019-02-25T10:47:58.626Z,21.49
2019-02-25T10:50:31.086Z,21.52
2019-02-25T10:53:03.839Z,21.48
2019-02-25T10:55:35.941Z,21.47
2019-02-25T10:58:08.074Z,21.50
2019-02-25T11:00:41.656Z,21.39
2019-02-25T11:03:15.288Z,21.48
2019-02-25T11:05:47.861Z,21.49
2019-02-25T11:08:19.986Z,21.52
2019-02-25T11:10:54.924Z,21.53
2019-02-25T11:13:27.554Z,21.53
2019-02-25T11:16:01.025Z,21.55
2019-02-25T11:18:33.149Z,21.54
2019-02-25T11:21:06.110Z,21.58
2019-02-25T11:23:39.106Z,21.54
2019-02-25T11:26:11.226Z,21.56
2019-02-25T11:28:43.817Z,21.59
2019-02-25T11:31:18.151Z,21.58
2019-02-25T11:33:49.922Z,21.54
2019-02-25T11:36:22.165Z,21.57
2019-02-25T11:38:54.253Z,21.55
2019-02-25T11:41:27.442Z,21.56
2019-02-25T11:43:59.581Z,21.55
2019-02-25T11:46:31.701Z,21.55
2019-02-25T11:49:03.828Z,21.53
2019-02-25T11:51:35.963Z,21.52
2019-02-25T11:54:08.084Z,21.52
2019-02-25T11:56:40.221Z,21.50
2019-02-25T11:59:12.359Z,21.50
2019-02-25T12:01:44.481Z,21.50
2019-02-25T12:04:16.870Z,21.49
2019-02-25T12:06:49.002Z,21.51
2019-02-25T12:09:21.133Z,21.49
2019-02-25T12:11:53.262Z,21.49
2019-02-25T12:14:25.417Z,21.50
2019-02-25T12:16:57.537Z,21.45
2019-02-25T12:19:29.664Z,21.41
2019-02-25T12:22:01.789Z,21.43
2019-02-25T12:24:33.917Z,21.38
2019-02-25T12:27:06.052Z,21.39
2019-02-25T12:29:38.258Z,21.38
2019-02-25T12:32:10.382Z,21.36
2019-02-25T12:34:42.506Z,21.34
2019-02-25T12:37:14.633Z,21.33
2019-02-25T12:39:46.763Z,21.32
2019-02-25T12:42:18.891Z,21.27
2019-02-25T12:44:51.041Z,21.30
2019-02-25T12:47:23.172Z,21.28
2019-02-25T12:49:55.304Z,21.26
2019-02-25T12:52:27.429Z,21.22
2019-02-25T12:54:59.555Z,21.21
2019-02-25T12:57:31.680Z,21.19
2019-02-25T13:00:03.808Z,21.13
2019-02-25T13:02:36.006Z,21.11
2019-02-25T13:05:08.137Z,21.08
2019-02-25T13:07:40.262Z,21.04
2019-02-25T13:10:12.396Z,21.02
2019-02-25T13:12:44.535Z,21.01
2019-02-25T13:15:16.666Z,20.99
2019-02-25T13:17:48.785Z,20.96
2019-02-25T13:20:20.921Z,20.94
2019-02-25T13:22:53.060Z,20.93
2019-02-25T13:25:25.492Z,20.91
2019-02-25T13:27:58.765Z,20.91
2019-02-25T13:30:31.544Z,20.88
2019-02-25T13:33:03.675Z,20.88
2019-02-25T13:35:35.829Z,20.86
2019-02-25T13:38:07.959Z,20.84
2019-02-25T13:40:40.084Z,20.84
2019-02-25T13:43:12.207Z,20.83
2019-02-25T13:45:45.315Z,20.80
2019-02-25T13:48:18.424Z,20.80
2019-02-25T13:50:50.560Z,20.78
2019-02-25T13:53:22.859Z,20.77
2019-02-25T13:55:54.992Z,20.76
2019-02-25T13:58:27.132Z,20.76
2019-02-25T14:00:59.256Z,20.74
2019-02-25T14:03:31.381Z,20.74
2019-02-25T14:06:03.517Z,20.74
2019-02-25T14:08:35.650Z,20.72
2019-02-25T14:11:07.777Z,20.72
2019-02-25T14:13:39.911Z,20.71
2019-02-25T14:16:12.042Z,20.71
2019-02-25T14:18:44.173Z,20.69
2019-02-25T14:21:16.835Z,20.68
2019-02-25T14:23:49.100Z,20.66
2019-02-25T14:26:21.245Z,20.67
2019-02-25T14:28:53.373Z,20.67
2019-02-25T14:31:27.315Z,20.66
2019-02-25T14:33:59.614Z,20.65
2019-02-25T14:36:31.743Z,20.63
2019-02-25T14:39:04.943Z,20.61
2019-02-25T14:41:38.694Z,20.62
2019-02-25T14:44:10.834Z,20.61
2019-02-25T14:46:42.958Z,20.59
2019-02-25T14:49:15.091Z,20.58
2019-02-25T14:51:47.216Z,20.58
2019-02-25T14:54:19.617Z,20.59
2019-02-25T14:56:52.743Z,20.57
2019-02-25T14:59:25.567Z,20.56
2019-02-25T15:01:59.241Z,20.55
2019-02-25T15:04:32.889Z,20.54
2019-02-25T15:07:06.897Z,20.54
2019-02-25T15:09:41.278Z,20.53
2019-02-25T15:12:13.165Z,20.53
2019-02-25T15:14:45.300Z,20.52
2019-02-25T15:17:17.421Z,20.50
2019-02-25T15:19:49.551Z,20.50
2019-02-25T15:22:22.754Z,20.49
2019-02-25T15:24:55.063Z,20.49
2019-02-25T15:27:28.702Z,20.48
2019-02-25T15:30:00.827Z,20.48
2019-02-25T15:32:35.173Z,20.46
2019-02-25T15:35:07.309Z,20.45
2019-02-25T15:37:40.630Z,20.44
2019-02-25T15:40:14.582Z,20.43
2019-02-25T15:42:46.606Z,20.42
2019-02-25T15:45:18.742Z,20.42
2019-02-25T15:47:51.508Z,20.40
2019-02-25T15:52:53.340Z,20.85
2019-02-25T17:12:21.073Z,22.81
2019-02-25T17:14:53.377Z,22.69
2019-02-25T17:17:26.753Z,22.62
2019-02-25T17:19:58.891Z,22.50
2019-02-25T17:22:31.026Z,22.41
2019-02-25T17:25:08.193Z,22.31
2019-02-25T17:27:38.253Z,22.23
2019-02-25T17:30:10.415Z,22.17
2019-02-25T17:32:44.070Z,22.10
2019-02-25T17:35:16.388Z,22.03
2019-02-25T17:37:48.594Z,21.96
2019-02-25T17:40:20.754Z,21.91
2019-02-25T17:42:54.510Z,21.85
2019-02-25T17:45:29.319Z,21.80
2019-02-25T17:48:03.257Z,21.74
2019-02-25T17:50:37.032Z,21.69
2019-02-25T17:53:09.774Z,21.58
2019-02-25T17:55:42.245Z,21.58
2019-02-25T17:58:14.834Z,21.48
2019-02-25T18:00:47.811Z,21.43
2019-02-25T18:10:43.679Z,20.55
2019-02-25T18:13:16.591Z,18.61
2019-02-25T18:15:49.882Z,17.08
2019-02-25T18:18:24.561Z,15.93
2019-02-25T18:20:56.823Z,15.24
2019-02-25T18:23:28.958Z,14.76
2019-02-25T18:26:01.106Z,14.40
2019-02-25T18:28:34.898Z,14.09
2019-02-25T18:31:09.098Z,13.82
2019-02-25T18:33:42.026Z,13.60
2019-02-25T18:36:14.917Z,13.47
2019-02-25T18:38:48.593Z,13.38
2019-02-25T18:41:21.543Z,13.32
2019-02-25T18:43:54.777Z,13.23
2019-02-25T18:46:27.700Z,13.19
2019-02-25T18:49:00.794Z,13.08
2019-02-25T18:51:35.848Z,12.97
2019-02-25T18:54:07.867Z,12.90
2019-02-25T18:56:40.825Z,12.88
2019-02-25T18:59:16.211Z,12.86
2019-02-25T19:01:49.735Z,12.68
2019-02-25T19:04:22.649Z,12.41
2019-02-25T19:06:54.785Z,12.32
2019-02-25T19:09:27.692Z,12.29
2019-02-25T19:12:00.039Z,12.24
2019-02-25T19:14:33.186Z,12.20
2019-02-25T19:17:06.566Z,12.17
2019-02-25T19:19:40.563Z,12.09
2019-02-25T19:22:15.817Z,12.07
2019-02-25T19:24:49.271Z,12.07
2019-02-25T19:27:25.217Z,12.01
2019-02-25T19:30:00.238Z,11.98
2019-02-25T19:32:31.920Z,11.95
2019-02-25T19:35:06.762Z,11.94
2019-02-25T19:37:40.123Z,11.89
2019-02-25T19:40:14.247Z,11.81
2019-02-25T19:42:51.365Z,11.68
2019-02-25T19:45:21.859Z,11.47
2019-02-25T19:50:54.477Z,11.29
2019-02-25T19:53:31.481Z,11.13
2019-02-25T19:56:18.275Z,11.00
2019-02-25T19:58:58.070Z,10.91
2019-02-25T20:04:42.265Z,10.73
2019-02-25T20:12:44.802Z,10.71
2019-02-25T20:15:18.736Z,10.70
2019-02-25T20:17:55.106Z,10.66
2019-02-25T20:20:26.945Z,10.60
2019-02-25T20:22:59.948Z,10.51
2019-02-25T20:28:52.871Z,10.34
2019-02-25T20:34:22.580Z,10.14
2019-02-25T20:36:55.460Z,10.10
2019-02-25T20:42:21.410Z,10.12
2019-02-25T20:48:08.241Z,9.99
2019-02-25T20:50:37.075Z,9.97
2019-02-25T20:53:11.045Z,9.87
2019-02-25T20:55:43.283Z,9.78
2019-02-25T20:58:18.823Z,9.73
2019-02-25T21:00:51.996Z,9.67
2019-02-25T21:03:25.414Z,9.58
2019-02-25T21:05:58.362Z,9.54
2019-02-25T21:08:30.666Z,9.50
2019-02-25T21:11:07.992Z,9.41
2019-02-25T21:13:38.073Z,9.36
2019-02-25T21:16:13.181Z,9.29
2019-02-25T21:18:48.310Z,9.22
2019-02-25T21:21:19.230Z,9.13
2019-02-25T21:23:51.406Z,9.06
2019-02-25T21:26:25.465Z,9.01
2019-02-25T21:28:58.512Z,8.92
2019-02-25T21:31:32.252Z,8.88
2019-02-25T21:34:04.435Z,8.90
2019-02-25T21:36:38.161Z,8.89
2019-02-25T21:39:12.177Z,8.83
2019-02-25T21:41:45.861Z,8.80
2019-02-25T21:44:19.472Z,8.72
2019-02-25T21:46:54.037Z,8.62
2019-02-25T21:49:27.216Z,8.55
2019-02-25T21:52:02.480Z,8.51
2019-02-25T21:54:34.409Z,8.46
2019-02-25T21:57:09.730Z,8.39
2019-02-25T21:59:41.968Z,8.32
2019-02-25T22:02:14.104Z,8.30
2019-02-25T22:04:48.103Z,8.23
2019-02-25T22:07:24.447Z,8.18
2019-02-25T22:09:53.948Z,8.13
2019-02-25T22:12:26.879Z,8.08
2019-02-25T22:14:59.941Z,8.00
2019-02-25T22:17:32.069Z,7.93
2019-02-25T22:20:04.834Z,7.94
2019-02-25T22:22:38.072Z,7.97
2019-02-25T22:25:11.144Z,7.98
2019-02-25T22:27:45.593Z,7.95
2019-02-25T22:30:18.017Z,7.92
2019-02-25T22:32:50.166Z,7.92
2019-02-25T22:35:24.070Z,7.83
2019-02-25T22:37:58.085Z,7.70
2019-02-25T22:40:32.067Z,7.60
2019-02-25T22:43:03.927Z,7.59
2019-02-25T22:45:38.025Z,7.62
2019-02-25T22:48:11.657Z,7.58
2019-02-25T22:50:43.931Z,7.52
2019-02-25T22:53:16.063Z,7.46
2019-02-25T22:55:52.212Z,7.41
2019-02-25T22:58:23.715Z,7.33
2019-02-25T23:00:58.273Z,7.28
2019-02-25T23:03:31.600Z,7.22
2019-02-25T23:06:03.768Z,7.17
2019-02-25T23:08:35.931Z,7.11
2019-02-25T23:11:10.001Z,7.07
2019-02-25T23:13:43.300Z,7.01
2019-02-25T23:16:18.079Z,6.95
2019-02-25T23:18:49.570Z,6.96
2019-02-25T23:21:24.233Z,6.99
2019-02-25T23:23:57.685Z,6.97
2019-02-25T23:26:29.411Z,6.93
2019-02-25T23:29:01.638Z,6.93
2019-02-25T23:31:33.783Z,6.94
2019-02-25T23:34:10.035Z,6.98
2019-02-25T23:36:43.042Z,7.00
2019-02-25T23:39:17.140Z,6.93
2019-02-25T23:41:48.810Z,6.86
2019-02-25T23:44:22.198Z,6.80
2019-02-25T23:46:57.645Z,6.76
2019-02-25T23:49:28.722Z,6.69
2019-02-25T23:52:00.875Z,6.67
2019-02-25T23:54:33.022Z,6.64
2019-02-25T23:57:05.147Z,6.64
2019-02-25T23:59:40.413Z,6.63
